Time;durP1;ratioP1;P1;durP2;ratioP2;P2;SDS_P1;SDS_P2;PMS_P1;PMS_P2;Temp;Humidity;BMP_temperature;BMP_pressure;BME280_temperature;BME280_humidity;BME280_pressure;Samples;Min_cycle;Max_cycle;Signal;HPM_P1;HPM_P2
2022/10/17 00:00:18;;;;;;;9.30;8.30;;;;;;;;;;105540;1292;24845;-25
2022/10/17 00:03:11;;;;;;;9.50;8.40;;;;;;;;;;105567;1290;22554;-26
2022/10/17 00:05:47;;;;;;;9.90;8.40;;;;;;;;;;105578;1290;22540;-26
2022/10/17 00:08:20;;;;;;;9.70;8.50;;;;;;;;;;105537;1292;22533;-26
2022/10/17 00:11:02;;;;;;;9.30;8.20;;;;;;;;;;105578;1296;22596;-26
2022/10/17 00:13:35;;;;;;;9.40;8.40;;;;;;;;;;105538;1297;22585;-26
2022/10/17 00:16:09;;;;;;;9.40;8.30;;;;;;;;;;105576;1298;22467;-25
2022/10/17 00:18:42;;;;;;;8.90;8.00;;;;;;;;;;105554;1292;25437;-26
2022/10/17 00:21:20;;;;;;;9.60;8.60;;;;;;;;;;105615;1284;22471;-26
2022/10/17 00:23:53;;;;;;;9.80;8.50;;;;;;;;;;105599;1291;22481;-25
2022/10/17 00:26:26;;;;;;;9.60;8.40;;;;;;;;;;105595;1294;22490;-26
2022/10/17 00:28:58;;;;;;;9.80;8.20;;;;;;;;;;105542;1294;22664;-25
2022/10/17 00:31:31;;;;;;;9.20;8.20;;;;;;;;;;105583;1291;22496;-26
2022/10/17 00:34:04;;;;;;;9.30;8.10;;;;;;;;;;105552;1297;22477;-26
2022/10/17 00:36:37;;;;;;;9.20;8.20;;;;;;;;;;105556;1294;22541;-26
2022/10/17 00:39:09;;;;;;;9.00;8.10;;;;;;;;;;105512;1299;22471;-26
2022/10/17 00:41:41;;;;;;;9.30;8.30;;;;;;;;;;105582;1283;22522;-25
2022/10/17 00:45:02;;;;;;;9.50;8.50;;;;;;;;;;105579;1303;22458;-26
2022/10/17 00:47:35;;;;;;;9.20;8.20;;;;;;;;;;105593;1294;25227;-26
2022/10/17 00:50:14;;;;;;;10.30;8.40;;;;;;;;;;105562;1296;25368;-26
2022/10/17 00:52:48;;;;;;;9.10;7.90;;;;;;;;;;105570;1284;22491;-25
2022/10/17 00:55:28;;;;;;;9.50;8.20;;;;;;;;;;105552;1291;25294;-26
2022/10/17 00:58:03;;;;;;;9.20;7.80;;;;;;;;;;105547;1297;22478;-26
2022/10/17 01:00:35;;;;;;;9.00;8.10;;;;;;;;;;105550;1297;22468;-26
2022/10/17 01:03:08;;;;;;;9.70;8.40;;;;;;;;;;105616;1297;22482;-26
2022/10/17 01:05:41;;;;;;;8.90;7.90;;;;;;;;;;105576;1293;22426;-26
2022/10/17 01:08:15;;;;;;;9.30;8.20;;;;;;;;;;105576;1291;22488;-26
2022/10/17 01:11:04;;;;;;;9.30;8.00;;;;;;;;;;105521;1301;22492;-26
2022/10/17 01:13:44;;;;;;;9.30;8.10;;;;;;;;;;105553;1291;25503;-25
2022/10/17 01:16:28;;;;;;;9.10;8.20;;;;;;;;;;105567;1279;22475;-26
2022/10/17 01:19:20;;;;;;;9.60;8.10;;;;;;;;;;105564;1297;24484;-25
2022/10/17 01:22:00;;;;;;;9.30;8.20;;;;;;;;;;105569;1298;22493;-26
2022/10/17 01:24:50;;;;;;;8.90;8.00;;;;;;;;;;105574;1292;22508;-26
2022/10/17 01:27:58;;;;;;;9.30;8.40;;;;;;;;;;105603;1298;22734;-26
2022/10/17 01:33:53;;;;;;;8.60;7.60;;;;;;;;;;102059;1339;549091;-26
2022/10/17 01:36:38;;;;;;;9.30;8.20;;;;;;;;;;104802;1297;22770;-26
2022/10/17 01:39:20;;;;;;;8.90;8.00;;;;;;;;;;104782;1301;22632;-26
2022/10/17 01:42:01;;;;;;;9.60;8.40;;;;;;;;;;104809;1310;22498;-25
2022/10/17 01:44:42;;;;;;;9.20;8.30;;;;;;;;;;104657;1311;22491;-26
2022/10/17 01:47:20;;;;;;;8.40;7.50;;;;;;;;;;104616;1309;265711;-26
2022/10/17 01:49:57;;;;;;;9.00;7.90;;;;;;;;;;104884;1302;24346;-26
2022/10/17 01:52:37;;;;;;;8.30;7.40;;;;;;;;;;104821;1310;25423;-26
2022/10/17 01:55:19;;;;;;;9.00;7.90;;;;;;;;;;104950;1309;22521;-26
2022/10/17 01:57:56;;;;;;;8.50;7.60;;;;;;;;;;104991;1311;22507;-25
2022/10/17 02:00:31;;;;;;;8.70;7.80;;;;;;;;;;104968;1285;22497;-26
2022/10/17 02:03:10;;;;;;;8.80;7.90;;;;;;;;;;104941;1308;22497;-26
2022/10/17 02:05:45;;;;;;;8.90;8.00;;;;;;;;;;104894;1309;25575;-26
2022/10/17 02:08:29;;;;;;;8.60;7.70;;;;;;;;;;104882;1294;22476;-26
2022/10/17 02:11:05;;;;;;;8.80;7.60;;;;;;;;;;104867;1301;22486;-25
2022/10/17 02:13:56;;;;;;;9.10;8.00;;;;;;;;;;104872;1302;22490;-26
2022/10/17 02:16:38;;;;;;;8.90;7.90;;;;;;;;;;104968;1309;22474;-26
2022/10/17 02:19:40;;;;;;;8.30;7.40;;;;;;;;;;104986;1300;22490;-26
2022/10/17 02:22:27;;;;;;;8.50;7.60;;;;;;;;;;104930;1304;22439;-26
2022/10/17 02:25:09;;;;;;;9.00;7.80;;;;;;;;;;104866;1295;22500;-26
2022/10/17 02:27:50;;;;;;;8.90;8.00;;;;;;;;;;104872;1308;22494;-25
2022/10/17 02:30:31;;;;;;;9.20;8.30;;;;;;;;;;104988;1298;25533;-28
2022/10/17 02:33:07;;;;;;;8.70;7.80;;;;;;;;;;104993;1301;22534;-26
2022/10/17 02:35:43;;;;;;;8.60;7.70;;;;;;;;;;105045;1298;22474;-26
2022/10/17 02:38:17;;;;;;;8.90;7.70;;;;;;;;;;105066;1305;22478;-26
2022/10/17 02:40:51;;;;;;;9.00;7.80;;;;;;;;;;105032;1307;22501;-25
2022/10/17 02:43:25;;;;;;;8.70;7.30;;;;;;;;;;105065;1313;22485;-25
2022/10/17 02:45:58;;;;;;;8.10;7.30;;;;;;;;;;104961;1307;23004;-26
2022/10/17 02:48:36;;;;;;;7.80;7.00;;;;;;;;;;105009;1296;22804;-26
2022/10/17 02:51:25;;;;;;;8.70;7.80;;;;;;;;;;105005;1308;23863;-26
2022/10/17 02:54:09;;;;;;;8.60;7.40;;;;;;;;;;105016;1303;22483;-26
2022/10/17 02:56:48;;;;;;;8.70;7.80;;;;;;;;;;105101;1307;22481;-26
2022/10/17 02:59:23;;;;;;;8.20;7.30;;;;;;;;;;105124;1310;22479;-26
2022/10/17 03:01:59;;;;;;;8.30;7.10;;;;;;;;;;105104;1309;22502;-26
2022/10/17 03:04:31;;;;;;;8.70;7.80;;;;;;;;;;105057;1308;23096;-26
2022/10/17 03:07:03;;;;;;;8.30;7.30;;;;;;;;;;105030;1306;22494;-26
2022/10/17 03:09:36;;;;;;;8.40;7.60;;;;;;;;;;105073;1308;25600;-26
2022/10/17 03:12:10;;;;;;;8.20;7.30;;;;;;;;;;105031;1295;22967;-25
2022/10/17 03:14:42;;;;;;;8.80;7.40;;;;;;;;;;104996;1305;22489;-26
2022/10/17 03:17:15;;;;;;;8.60;7.60;;;;;;;;;;105108;1310;22478;-26
2022/10/17 03:19:49;;;;;;;8.50;7.60;;;;;;;;;;105117;1304;22664;-26
2022/10/17 03:22:22;;;;;;;8.40;7.00;;;;;;;;;;105101;1304;22850;-26
2022/10/17 03:24:54;;;;;;;8.40;7.50;;;;;;;;;;105041;1305;22480;-26
2022/10/17 03:27:26;;;;;;;8.50;7.40;;;;;;;;;;105041;1313;22814;-26
2022/10/17 03:29:58;;;;;;;8.30;7.40;;;;;;;;;;105033;1304;22485;-26
2022/10/17 03:32:32;;;;;;;8.60;7.40;;;;;;;;;;105059;1310;22486;-26
2022/10/17 03:35:09;;;;;;;9.10;7.60;;;;;;;;;;105033;1289;22480;-26
2022/10/17 03:37:41;;;;;;;8.60;7.50;;;;;;;;;;105044;1298;22521;-26
2022/10/17 03:40:14;;;;;;;8.00;7.10;;;;;;;;;;104999;1303;22497;-26
2022/10/17 03:42:47;;;;;;;8.50;7.20;;;;;;;;;;105058;1301;22629;-26
2022/10/17 03:45:20;;;;;;;8.40;7.50;;;;;;;;;;105018;1305;22513;-25
2022/10/17 03:47:52;;;;;;;7.70;6.60;;;;;;;;;;105027;1288;22492;-26
2022/10/17 03:50:25;;;;;;;7.60;6.70;;;;;;;;;;105037;1312;22502;-26
2022/10/17 03:52:57;;;;;;;8.10;6.90;;;;;;;;;;105055;1301;22478;-26
2022/10/17 03:55:30;;;;;;;9.10;7.70;;;;;;;;;;104955;1307;22496;-26
2022/10/17 03:58:02;;;;;;;8.90;7.70;;;;;;;;;;105027;1312;22496;-26
2022/10/17 04:00:34;;;;;;;8.10;7.20;;;;;;;;;;105033;1305;22566;-26
2022/10/17 04:03:06;;;;;;;8.50;7.50;;;;;;;;;;105027;1281;23714;-26
2022/10/17 04:05:38;;;;;;;8.10;7.30;;;;;;;;;;105013;1297;23055;-26
2022/10/17 04:08:10;;;;;;;9.20;7.70;;;;;;;;;;105019;1305;22432;-25
2022/10/17 04:10:42;;;;;;;8.20;7.30;;;;;;;;;;105036;1308;22494;-26
2022/10/17 04:13:15;;;;;;;8.50;7.10;;;;;;;;;;105055;1299;22865;-26
2022/10/17 04:15:59;;;;;;;8.20;7.10;;;;;;;;;;105017;1292;22900;-26
2022/10/17 04:18:32;;;;;;;8.50;7.20;;;;;;;;;;105036;1298;22481;-26
2022/10/17 04:21:06;;;;;;;9.00;7.30;;;;;;;;;;105048;1296;22500;-26
2022/10/17 04:23:39;;;;;;;9.20;8.30;;;;;;;;;;105055;1297;22484;-26
2022/10/17 04:26:11;;;;;;;8.90;7.70;;;;;;;;;;105033;1306;25245;-26
2022/10/17 04:28:43;;;;;;;10.30;7.80;;;;;;;;;;105034;1303;22570;-26
2022/10/17 04:31:18;;;;;;;9.20;7.50;;;;;;;;;;105035;1313;22524;-26
2022/10/17 04:33:57;;;;;;;9.50;7.70;;;;;;;;;;105069;1307;22488;-26
2022/10/17 04:36:29;;;;;;;8.30;7.30;;;;;;;;;;104983;1292;25265;-27
2022/10/17 04:39:04;;;;;;;10.30;8.10;;;;;;;;;;105054;1305;22484;-26
2022/10/17 04:41:37;;;;;;;8.80;7.90;;;;;;;;;;105024;1298;22559;-26
2022/10/17 04:44:09;;;;;;;9.40;8.20;;;;;;;;;;105058;1294;25281;-26
2022/10/17 04:46:42;;;;;;;9.10;7.90;;;;;;;;;;105047;1302;22494;-26
2022/10/17 04:49:14;;;;;;;8.90;7.60;;;;;;;;;;105037;1307;22498;-26
2022/10/17 04:51:46;;;;;;;10.80;7.90;;;;;;;;;;104991;1303;22483;-26
2022/10/17 04:54:18;;;;;;;8.90;7.90;;;;;;;;;;105599;1303;25647;-27
2022/10/17 04:56:51;;;;;;;8.90;7.90;;;;;;;;;;105433;1290;22488;-26
2022/10/17 04:59:23;;;;;;;9.30;8.30;;;;;;;;;;105640;1298;21803;-26
2022/10/17 05:01:55;;;;;;;10.20;7.90;;;;;;;;;;105599;1304;22505;-26
2022/10/17 05:04:27;;;;;;;9.60;8.20;;;;;;;;;;105644;1298;22503;-26
2022/10/17 05:06:59;;;;;;;8.20;7.10;;;;;;;;;;105589;1303;22475;-26
2022/10/17 05:09:32;;;;;;;9.60;8.40;;;;;;;;;;105585;1297;22486;-26
2022/10/17 05:12:04;;;;;;;9.50;7.90;;;;;;;;;;105576;1301;22500;-25
2022/10/17 05:14:36;;;;;;;10.10;8.60;;;;;;;;;;105459;1304;22426;-25
2022/10/17 05:17:08;;;;;;;9.30;7.90;;;;;;;;;;105601;1295;22463;-26
2022/10/17 05:19:41;;;;;;;9.90;8.20;;;;;;;;;;105663;1298;22479;-26
2022/10/17 05:22:13;;;;;;;9.80;8.20;;;;;;;;;;105634;1298;22553;-26
2022/10/17 05:24:45;;;;;;;9.80;8.20;;;;;;;;;;105641;1301;25324;-26
2022/10/17 05:27:18;;;;;;;10.70;8.20;;;;;;;;;;105560;1304;22557;-25
2022/10/17 05:29:50;;;;;;;9.20;8.10;;;;;;;;;;105623;1290;22509;-25
2022/10/17 05:32:22;;;;;;;10.30;8.10;;;;;;;;;;105577;1291;22522;-25
2022/10/17 05:34:54;;;;;;;9.10;7.70;;;;;;;;;;105581;1304;22496;-26
2022/10/17 05:37:28;;;;;;;10.50;8.30;;;;;;;;;;105562;1292;25469;-26
2022/10/17 05:40:06;;;;;;;9.80;8.20;;;;;;;;;;105624;1301;22468;-26
2022/10/17 05:42:38;;;;;;;9.50;7.70;;;;;;;;;;105629;1297;22478;-25
2022/10/17 05:45:12;;;;;;;9.60;8.00;;;;;;;;;;105645;1297;22469;-25
2022/10/17 05:47:45;;;;;;;8.70;7.70;;;;;;;;;;105612;1299;22481;-26
2022/10/17 05:50:19;;;;;;;10.80;8.50;;;;;;;;;;105572;1297;22466;-26
2022/10/17 05:52:55;;;;;;;9.70;8.70;;;;;;;;;;105593;1297;22487;-25
2022/10/17 05:55:28;;;;;;;8.90;7.80;;;;;;;;;;105574;1301;22732;-26
2022/10/17 05:58:01;;;;;;;10.20;8.40;;;;;;;;;;105599;1299;22423;-26
2022/10/17 06:00:33;;;;;;;9.00;8.00;;;;;;;;;;105636;1295;22476;-26
2022/10/17 06:03:06;;;;;;;8.80;7.60;;;;;;;;;;105633;1301;22431;-26
2022/10/17 06:05:39;;;;;;;10.10;8.60;;;;;;;;;;105643;1294;22481;-26
2022/10/17 06:08:11;;;;;;;9.50;8.40;;;;;;;;;;105591;1301;22503;-26
2022/10/17 06:10:43;;;;;;;10.70;8.50;;;;;;;;;;105583;1297;22465;-26
2022/10/17 06:13:15;;;;;;;9.10;7.90;;;;;;;;;;105581;1298;22539;-26
2022/10/17 06:15:48;;;;;;;8.90;8.00;;;;;;;;;;105614;1295;22454;-25
2022/10/17 06:18:20;;;;;;;9.40;8.30;;;;;;;;;;105576;1295;22461;-25
2022/10/17 06:20:52;;;;;;;9.50;8.10;;;;;;;;;;105646;1289;22611;-26
2022/10/17 06:23:26;;;;;;;9.70;8.70;;;;;;;;;;105513;1290;26602;-27
2022/10/17 06:26:03;;;;;;;9.70;8.30;;;;;;;;;;105568;1301;22471;-26
2022/10/17 06:28:38;;;;;;;11.60;8.70;;;;;;;;;;105490;1291;26435;-27
2022/10/17 06:31:14;;;;;;;12.00;8.70;;;;;;;;;;105437;1299;22643;-27
2022/10/17 06:33:50;;;;;;;11.10;9.00;;;;;;;;;;105405;1306;22484;-27
2022/10/17 06:36:21;;;;;;;10.90;8.60;;;;;;;;;;105369;1299;25902;-26
2022/10/17 06:38:54;;;;;;;11.80;9.20;;;;;;;;;;105419;1285;23704;-27
2022/10/17 06:41:26;;;;;;;10.40;8.30;;;;;;;;;;105592;1304;22683;-27
2022/10/17 06:43:58;;;;;;;12.10;8.60;;;;;;;;;;105600;1298;25581;-27
2022/10/17 06:46:30;;;;;;;10.10;8.20;;;;;;;;;;105614;1287;22536;-25
2022/10/17 06:49:03;;;;;;;9.50;8.40;;;;;;;;;;105567;1288;25931;-25
2022/10/17 06:51:38;;;;;;;10.10;8.70;;;;;;;;;;105617;1292;22469;-25
2022/10/17 06:54:10;;;;;;;11.40;9.00;;;;;;;;;;105576;1298;22527;-26
2022/10/17 06:56:42;;;;;;;10.50;8.30;;;;;;;;;;105580;1290;26395;-26
2022/10/17 06:59:15;;;;;;;10.10;8.70;;;;;;;;;;105586;1287;22481;-26
2022/10/17 07:01:47;;;;;;;9.50;8.40;;;;;;;;;;105593;1298;22469;-26
2022/10/17 07:04:19;;;;;;;9.10;8.00;;;;;;;;;;105584;1293;22475;-26
2022/10/17 07:06:52;;;;;;;10.00;8.60;;;;;;;;;;105617;1297;22459;-25
2022/10/17 07:09:25;;;;;;;9.80;8.70;;;;;;;;;;105546;1303;22517;-26
2022/10/17 07:11:57;;;;;;;10.40;8.60;;;;;;;;;;105544;1288;22568;-26
2022/10/17 07:14:31;;;;;;;9.90;8.00;;;;;;;;;;105559;1298;25457;-26
2022/10/17 07:17:04;;;;;;;10.20;8.70;;;;;;;;;;105558;1289;25351;-26
2022/10/17 07:19:36;;;;;;;10.20;8.30;;;;;;;;;;105562;1300;25921;-26
2022/10/17 07:22:08;;;;;;;9.80;8.40;;;;;;;;;;105552;1289;26855;-26
2022/10/17 07:24:40;;;;;;;10.30;8.60;;;;;;;;;;105598;1285;22477;-26
2022/10/17 07:27:14;;;;;;;9.40;8.20;;;;;;;;;;105579;1291;25472;-26
2022/10/17 07:29:48;;;;;;;9.70;8.30;;;;;;;;;;105473;1285;22494;-25
2022/10/17 07:32:20;;;;;;;9.80;8.20;;;;;;;;;;105547;1297;22496;-25
2022/10/17 07:34:52;;;;;;;10.00;8.60;;;;;;;;;;105548;1298;22468;-26
2022/10/17 07:37:24;;;;;;;9.70;8.70;;;;;;;;;;105589;1298;22478;-26
2022/10/17 07:39:57;;;;;;;9.20;8.00;;;;;;;;;;105548;1290;22520;-26
2022/10/17 07:42:29;;;;;;;9.60;8.30;;;;;;;;;;105626;1294;22483;-27
2022/10/17 07:45:01;;;;;;;10.60;8.70;;;;;;;;;;105623;1302;22671;-26
2022/10/17 07:47:34;;;;;;;10.30;9.10;;;;;;;;;;105614;1301;22445;-27
2022/10/17 07:50:06;;;;;;;;;;;;;;;;;;105602;1282;22463;-26
2022/10/17 07:52:38;;;;;;;10.20;9.00;;;;;;;;;;105593;1297;22495;-26
2022/10/17 07:55:12;;;;;;;9.30;8.30;;;;;;;;;;105608;1299;22497;-26
2022/10/17 07:57:44;;;;;;;10.30;8.30;;;;;;;;;;105573;1301;22488;-26
2022/10/17 08:00:20;;;;;;;9.80;8.70;;;;;;;;;;105563;1297;21648;-26
2022/10/17 08:02:52;;;;;;;10.10;8.70;;;;;;;;;;105629;1298;22484;-26
2022/10/17 08:05:28;;;;;;;9.60;8.60;;;;;;;;;;105672;1297;22491;-26
2022/10/17 08:08:00;;;;;;;11.10;8.80;;;;;;;;;;105616;1291;22612;-26
2022/10/17 08:10:32;;;;;;;10.50;8.90;;;;;;;;;;105582;1290;22474;-26
2022/10/17 08:13:05;;;;;;;11.00;9.00;;;;;;;;;;105580;1298;22478;-26
2022/10/17 08:15:39;;;;;;;9.80;8.60;;;;;;;;;;105569;1297;25690;-26
2022/10/17 08:18:12;;;;;;;10.00;8.90;;;;;;;;;;105556;1291;22472;-27
2022/10/17 08:20:45;;;;;;;11.80;8.80;;;;;;;;;;105453;1282;22487;-28
2022/10/17 08:23:20;;;;;;;9.70;8.70;;;;;;;;;;105580;1292;22518;-27
2022/10/17 08:25:52;;;;;;;11.50;9.30;;;;;;;;;;105545;1298;22483;-29
2022/10/17 08:28:24;;;;;;;11.30;8.90;;;;;;;;;;105558;1298;22617;-27
2022/10/17 08:31:03;;;;;;;11.00;9.10;;;;;;;;;;105494;1298;22493;-29
2022/10/17 08:33:35;;;;;;;10.10;8.60;;;;;;;;;;105480;1291;22486;-28
2022/10/17 08:36:09;;;;;;;10.30;8.90;;;;;;;;;;105485;1298;22890;-29
2022/10/17 08:38:43;;;;;;;10.10;8.90;;;;;;;;;;105540;1295;22478;-26
2022/10/17 08:41:40;;;;;;;10.10;8.90;;;;;;;;;;105536;1289;22487;-29
2022/10/17 08:44:35;;;;;;;11.20;8.40;;;;;;;;;;105585;1289;23120;-30
2022/10/17 08:47:13;;;;;;;11.20;8.90;;;;;;;;;;105608;1301;22471;-28
2022/10/17 08:49:51;;;;;;;9.70;8.60;;;;;;;;;;105545;1282;22493;-29
2022/10/17 08:52:36;;;;;;;10.30;8.80;;;;;;;;;;105547;1298;22473;-30
2022/10/17 08:55:17;;;;;;;9.80;8.80;;;;;;;;;;105515;1293;22502;-28
2022/10/17 08:57:50;;;;;;;10.40;8.80;;;;;;;;;;105572;1295;22482;-31
2022/10/17 09:00:25;;;;;;;9.90;8.90;;;;;;;;;;105568;1297;22611;-28
2022/10/17 09:03:28;;;;;;;10.10;8.50;;;;;;;;;;105568;1298;25220;-29
2022/10/17 09:06:15;;;;;;;9.20;8.20;;;;;;;;;;105553;1283;22685;-29
2022/10/17 09:09:01;;;;;;;10.00;9.00;;;;;;;;;;105586;1294;22466;-29
2022/10/17 09:11:55;;;;;;;10.30;9.20;;;;;;;;;;105534;1279;22476;-29
2022/10/17 09:14:46;;;;;;;9.50;8.40;;;;;;;;;;105466;1298;22494;-27
2022/10/17 09:17:35;;;;;;;10.00;8.70;;;;;;;;;;105473;1287;22983;-27
2022/10/17 09:20:16;;;;;;;9.60;8.50;;;;;;;;;;105486;1297;22485;-29
2022/10/17 09:22:55;;;;;;;9.30;8.40;;;;;;;;;;105480;1284;22518;-30
2022/10/17 09:25:28;;;;;;;9.60;8.60;;;;;;;;;;105568;1288;23745;-30
2022/10/17 09:28:11;;;;;;;9.60;8.60;;;;;;;;;;105567;1280;22495;-28
2022/10/17 09:30:47;;;;;;;9.60;8.60;;;;;;;;;;105543;1298;22455;-30
2022/10/17 09:33:25;;;;;;;9.50;8.40;;;;;;;;;;105573;1298;22472;-28
2022/10/17 09:35:58;;;;;;;9.40;8.50;;;;;;;;;;105599;1275;22484;-29
2022/10/17 09:38:39;;;;;;;9.60;8.20;;;;;;;;;;105610;1292;25292;-30
2022/10/17 09:41:19;;;;;;;10.10;8.50;;;;;;;;;;105619;1297;22481;-29
2022/10/17 09:43:53;;;;;;;9.90;8.60;;;;;;;;;;105665;1297;22469;-29
2022/10/17 09:46:32;;;;;;;9.60;8.60;;;;;;;;;;105266;1287;554170;-29
2022/10/17 09:49:14;;;;;;;9.40;8.50;;;;;;;;;;105702;1295;22477;-29
2022/10/17 09:51:47;;;;;;;10.10;9.10;;;;;;;;;;105731;1290;22674;-27
2022/10/17 09:54:26;;;;;;;9.60;8.50;;;;;;;;;;105566;1291;22445;-27
2022/10/17 09:57:03;;;;;;;10.30;9.20;;;;;;;;;;105596;1289;22492;-28
2022/10/17 09:59:38;;;;;;;9.70;8.70;;;;;;;;;;105602;1280;22529;-28
2022/10/17 10:02:21;;;;;;;9.50;8.50;;;;;;;;;;105607;1289;22482;-28
2022/10/17 10:05:03;;;;;;;9.10;8.00;;;;;;;;;;105717;1295;22468;-27
2022/10/17 10:07:40;;;;;;;9.10;8.20;;;;;;;;;;105752;1295;22486;-28
2022/10/17 10:10:30;;;;;;;10.00;9.00;;;;;;;;;;105717;1295;22497;-28
2022/10/17 10:13:15;;;;;;;9.20;8.30;;;;;;;;;;105659;1287;22499;-29
2022/10/17 10:15:49;;;;;;;9.30;8.30;;;;;;;;;;105605;1301;22636;-27
2022/10/17 10:18:34;;;;;;;9.10;8.10;;;;;;;;;;105555;1297;22488;-29
2022/10/17 10:21:16;;;;;;;9.40;8.40;;;;;;;;;;105622;1290;22486;-28
2022/10/17 10:24:16;;;;;;;9.20;8.20;;;;;;;;;;105637;1289;22483;-28
2022/10/17 10:26:52;;;;;;;8.80;7.80;;;;;;;;;;105721;1295;22940;-28
2022/10/17 10:29:31;;;;;;;9.70;8.70;;;;;;;;;;105752;1289;25280;-27
2022/10/17 10:32:16;;;;;;;9.50;8.50;;;;;;;;;;105752;1295;22535;-27
2022/10/17 10:34:55;;;;;;;9.60;8.70;;;;;;;;;;105597;1289;22488;-28
2022/10/17 10:37:33;;;;;;;9.50;8.50;;;;;;;;;;105594;1283;22487;-27
2022/10/17 10:40:16;;;;;;;10.10;8.50;;;;;;;;;;105577;1293;22593;-27
2022/10/17 10:42:54;;;;;;;10.00;8.90;;;;;;;;;;105624;1295;22703;-27
2022/10/17 10:45:40;;;;;;;9.30;7.80;;;;;;;;;;105649;1295;22701;-27
2022/10/17 10:48:23;;;;;;;9.40;8.50;;;;;;;;;;105610;1298;22485;-27
2022/10/17 10:51:02;;;;;;;10.10;8.40;;;;;;;;;;105743;1295;22483;-27
2022/10/17 10:53:47;;;;;;;9.70;8.70;;;;;;;;;;105697;1295;26429;-28
2022/10/17 10:56:26;;;;;;;9.40;8.50;;;;;;;;;;105587;1296;24236;-27
2022/10/17 10:59:04;;;;;;;9.40;8.40;;;;;;;;;;105581;1296;22619;-28
2022/10/17 11:01:45;;;;;;;9.10;8.10;;;;;;;;;;105442;1283;22473;-28
2022/10/17 11:04:29;;;;;;;9.00;8.10;;;;;;;;;;105573;1298;22478;-28
2022/10/17 11:07:06;;;;;;;9.10;8.00;;;;;;;;;;105719;1294;25478;-28
2022/10/17 11:09:53;;;;;;;9.40;8.40;;;;;;;;;;105729;1295;22476;-28
2022/10/17 11:12:30;;;;;;;9.10;8.20;;;;;;;;;;105734;1283;22521;-28
2022/10/17 11:15:24;;;;;;;8.60;7.70;;;;;;;;;;105626;1295;22606;-28
2022/10/17 11:18:00;;;;;;;;;;;;;;;;;;105630;1298;22462;-29
2022/10/17 11:20:42;;;;;;;9.00;7.90;;;;;;;;;;105655;1298;22471;-28
2022/10/17 11:23:23;;;;;;;9.30;8.30;;;;;;;;;;105589;1300;22421;-29
2022/10/17 11:25:59;;;;;;;8.80;7.80;;;;;;;;;;105646;1295;22531;-27
2022/10/17 11:28:32;;;;;;;8.20;7.40;;;;;;;;;;105734;1297;22482;-27
2022/10/17 11:31:10;;;;;;;8.50;7.70;;;;;;;;;;105714;1289;22538;-27
2022/10/17 11:33:50;;;;;;;8.90;8.00;;;;;;;;;;105703;1269;22602;-28
2022/10/17 11:36:32;;;;;;;8.60;7.70;;;;;;;;;;105533;1293;22500;-26
2022/10/17 11:39:12;;;;;;;8.60;7.70;;;;;;;;;;105546;1297;22480;-24
2022/10/17 11:41:51;;;;;;;8.70;7.40;;;;;;;;;;105493;1275;22486;-25
2022/10/17 11:44:27;;;;;;;8.50;7.60;;;;;;;;;;105612;1297;26532;-25
2022/10/17 11:47:04;;;;;;;8.30;7.50;;;;;;;;;;105688;1295;22483;-25
2022/10/17 11:49:45;;;;;;;9.20;8.00;;;;;;;;;;105720;1296;22475;-26
2022/10/17 11:52:33;;;;;;;9.30;8.20;;;;;;;;;;105717;1280;22490;-25
2022/10/17 11:55:13;;;;;;;8.80;7.90;;;;;;;;;;105591;1285;22493;-25
2022/10/17 11:57:56;;;;;;;8.70;7.80;;;;;;;;;;105607;1297;22493;-25
2022/10/17 12:00:41;;;;;;;9.20;8.30;;;;;;;;;;105621;1285;25489;-27
2022/10/17 12:03:30;;;;;;;8.80;7.90;;;;;;;;;;105612;1297;22777;-25
2022/10/17 12:06:13;;;;;;;8.80;7.80;;;;;;;;;;105619;1297;22478;-26
2022/10/17 12:08:52;;;;;;;9.00;7.70;;;;;;;;;;105735;1289;24217;-25
2022/10/17 12:11:42;;;;;;;9.10;8.20;;;;;;;;;;105761;1281;25264;-25
2022/10/17 12:14:39;;;;;;;8.70;7.80;;;;;;;;;;105719;1296;22528;-25
2022/10/17 12:17:39;;;;;;;8.40;7.50;;;;;;;;;;105595;1282;22490;-25
2022/10/17 12:20:33;;;;;;;8.20;7.40;;;;;;;;;;105617;1292;22475;-25
2022/10/17 12:23:29;;;;;;;8.70;7.70;;;;;;;;;;105595;1289;24257;-25
2022/10/17 12:26:08;;;;;;;8.60;7.70;;;;;;;;;;105589;1289;22472;-25
2022/10/17 12:28:48;;;;;;;8.50;7.60;;;;;;;;;;105721;1294;22475;-25
2022/10/17 12:31:29;;;;;;;9.30;8.40;;;;;;;;;;105747;1279;22541;-25
2022/10/17 12:34:04;;;;;;;8.70;7.80;;;;;;;;;;105743;1295;22564;-25
2022/10/17 12:36:43;;;;;;;8.90;8.00;;;;;;;;;;105618;1292;22486;-25
2022/10/17 12:39:53;;;;;;;8.80;7.90;;;;;;;;;;105617;1276;22551;-26
2022/10/17 12:42:49;;;;;;;8.90;8.00;;;;;;;;;;105599;1289;22483;-25
2022/10/17 12:45:51;;;;;;;8.30;7.40;;;;;;;;;;105607;1288;22500;-25
2022/10/17 12:49:16;;;;;;;8.70;7.60;;;;;;;;;;105803;1295;22477;-25
2022/10/17 12:52:28;;;;;;;8.50;7.70;;;;;;;;;;105750;1283;22698;-25
2022/10/17 12:55:13;;;;;;;8.50;7.30;;;;;;;;;;105715;1280;22507;-25
2022/10/17 12:57:54;;;;;;;8.40;7.50;;;;;;;;;;105623;1300;22484;-25
2022/10/17 13:00:37;;;;;;;8.60;7.70;;;;;;;;;;105668;1295;22471;-25
2022/10/17 13:03:17;;;;;;;8.30;7.40;;;;;;;;;;105603;1298;22489;-25
2022/10/17 13:05:53;;;;;;;8.40;7.50;;;;;;;;;;105606;1283;22694;-25
2022/10/17 13:08:29;;;;;;;8.70;7.70;;;;;;;;;;105680;1296;22484;-25
2022/10/17 13:11:02;;;;;;;8.90;7.90;;;;;;;;;;105696;1295;22514;-26
2022/10/17 13:13:41;;;;;;;8.30;7.50;;;;;;;;;;105691;1283;24040;-26
2022/10/17 13:16:31;;;;;;;8.40;7.50;;;;;;;;;;105756;1282;23056;-25
2022/10/17 13:19:12;;;;;;;8.60;7.70;;;;;;;;;;105582;1297;22476;-25
2022/10/17 13:21:55;;;;;;;8.80;7.20;;;;;;;;;;105641;1297;22541;-25
2022/10/17 13:24:33;;;;;;;8.60;7.50;;;;;;;;;;105650;1295;21821;-26
2022/10/17 13:27:21;;;;;;;8.60;7.70;;;;;;;;;;105654;1295;22525;-25
2022/10/17 13:29:55;;;;;;;8.70;7.90;;;;;;;;;;105735;1281;22547;-25
2022/10/17 13:32:39;;;;;;;8.80;7.90;;;;;;;;;;105747;1291;22556;-25
2022/10/17 13:35:22;;;;;;;8.70;7.70;;;;;;;;;;105751;1299;22472;-25
2022/10/17 13:37:55;;;;;;;8.30;7.50;;;;;;;;;;105684;1280;22533;-25
2022/10/17 13:40:30;;;;;;;8.10;7.30;;;;;;;;;;105624;1289;22475;-25
2022/10/17 13:43:04;;;;;;;9.50;7.60;;;;;;;;;;105659;1298;22521;-25
2022/10/17 13:45:39;;;;;;;8.50;7.60;;;;;;;;;;105656;1297;22477;-25
2022/10/17 13:48:23;;;;;;;8.60;7.70;;;;;;;;;;105649;1287;25368;-25
2022/10/17 13:50:59;;;;;;;8.40;7.50;;;;;;;;;;105695;1280;22609;-26
2022/10/17 13:53:36;;;;;;;8.60;7.70;;;;;;;;;;105712;1295;22468;-26
2022/10/17 13:56:19;;;;;;;8.50;7.70;;;;;;;;;;105698;1295;22517;-25
2022/10/17 13:58:51;;;;;;;;;;;;;;;;;;105608;1286;22450;-25
2022/10/17 14:01:25;;;;;;;9.60;8.00;;;;;;;;;;105657;1298;22469;-25
2022/10/17 14:03:58;;;;;;;12.10;8.60;;;;;;;;;;105653;1291;22483;-26
2022/10/17 14:06:31;;;;;;;12.60;9.30;;;;;;;;;;105658;1289;25236;-26
2022/10/17 14:09:07;;;;;;;11.70;8.70;;;;;;;;;;105637;1289;22507;-25
2022/10/17 14:11:41;;;;;;;9.50;7.90;;;;;;;;;;105739;1290;25496;-25
2022/10/17 14:14:24;;;;;;;9.20;8.10;;;;;;;;;;105727;1296;22469;-25
2022/10/17 14:16:57;;;;;;;11.20;8.80;;;;;;;;;;105740;1279;24285;-26
2022/10/17 14:19:31;;;;;;;9.40;8.20;;;;;;;;;;105605;1281;22529;-25
2022/10/17 14:25:02;;;;;;;9.60;7.70;;;;;;;;;;101965;1346;549673;-25
2022/10/17 14:27:40;;;;;;;10.20;7.90;;;;;;;;;;104807;1305;22488;-25
2022/10/17 14:30:36;;;;;;;11.10;8.40;;;;;;;;;;104809;1304;22484;-25
2022/10/17 14:33:12;;;;;;;9.50;7.80;;;;;;;;;;104801;1310;22488;-25
2022/10/17 14:35:52;;;;;;;9.20;8.10;;;;;;;;;;104698;1310;22501;-25
2022/10/17 14:38:25;;;;;;;10.00;8.30;;;;;;;;;;104625;1304;246752;-25
2022/10/17 14:41:01;;;;;;;10.10;8.20;;;;;;;;;;104891;1307;22614;-25
2022/10/17 14:43:34;;;;;;;9.80;8.10;;;;;;;;;;104869;1308;22528;-25
2022/10/17 14:46:05;;;;;;;;;;;;;;;;;;105557;1287;25259;-25
2022/10/17 14:48:38;;;;;;;9.90;8.70;;;;;;;;;;105618;1268;22513;-25
2022/10/17 14:51:14;;;;;;;11.60;9.20;;;;;;;;;;105636;1292;22493;-25
2022/10/17 14:54:02;;;;;;;10.10;9.00;;;;;;;;;;105606;1296;22472;-26
2022/10/17 14:56:43;;;;;;;10.50;8.60;;;;;;;;;;105671;1301;22483;-26
2022/10/17 14:59:16;;;;;;;9.60;8.60;;;;;;;;;;105549;1298;22487;-26
2022/10/17 15:01:49;;;;;;;10.10;8.60;;;;;;;;;;105609;1302;22550;-26
2022/10/17 15:04:21;;;;;;;9.70;8.60;;;;;;;;;;105583;1290;23063;-26
2022/10/17 15:06:57;;;;;;;10.30;9.30;;;;;;;;;;105586;1282;22433;-26
2022/10/17 15:09:30;;;;;;;10.40;8.20;;;;;;;;;;105597;1297;22499;-26
2022/10/17 15:12:06;;;;;;;10.40;8.40;;;;;;;;;;105577;1291;24958;-25
2022/10/17 15:14:38;;;;;;;9.80;8.60;;;;;;;;;;105599;1287;22503;-26
2022/10/17 15:17:19;;;;;;;9.00;7.90;;;;;;;;;;105586;1298;22715;-26
2022/10/17 15:19:51;;;;;;;9.00;8.10;;;;;;;;;;105620;1297;22585;-26
2022/10/17 15:22:23;;;;;;;9.30;8.30;;;;;;;;;;105581;1291;25261;-26
2022/10/17 15:24:55;;;;;;;9.70;8.40;;;;;;;;;;105571;1276;22527;-26
2022/10/17 15:27:31;;;;;;;19.80;17.80;;;;;;;;;;105567;1296;22631;-25
2022/10/17 15:30:03;;;;;;;22.80;20.70;;;;;;;;;;105609;1281;25253;-25
2022/10/17 15:32:34;;;;;;;25.70;23.10;;;;;;;;;;105619;1291;25415;-25
2022/10/17 15:35:09;;;;;;;20.30;18.30;;;;;;;;;;105596;1296;22541;-25